Time;durP1;ratioP1;P1;durP2;ratioP2;P2;SDS_P1;SDS_P2;PMS_P1;PMS_P2;Temp;Humidity;BMP_temperature;BMP_pressure;BME280_temperature;BME280_humidity;BME280_pressure;Samples;Min_cycle;Max_cycle;Signal;HPM_P1;HPM_P2
2023/09/30 00:00:57;;;;;;;10.18;3.53;;;11.10;99.90;;;;;;5156778;27;20046;-21
2023/09/30 00:03:23;;;;;;;25.10;4.28;;;11.10;99.90;;;;;;5138520;27;20107;-21
2023/09/30 00:05:49;;;;;;;12.77;3.53;;;11.00;99.90;;;;;;5156445;27;20050;-20
2023/09/30 00:08:15;;;;;;;15.50;4.43;;;10.90;99.90;;;;;;5156247;27;20091;-21
2023/09/30 00:10:40;;;;;;;14.38;3.80;;;10.90;99.90;;;;;;5155166;27;20053;-21
2023/09/30 00:13:09;;;;;;;16.73;3.70;;;10.80;99.90;;;;;;5156266;27;20046;-20
2023/09/30 00:15:35;;;;;;;14.23;3.53;;;10.80;99.90;;;;;;5156166;27;20049;-20
2023/09/30 00:18:01;;;;;;;12.70;4.25;;;10.80;99.90;;;;;;5154944;27;20035;-21
2023/09/30 00:20:30;;;;;;;15.98;5.20;;;10.90;99.90;;;;;;5156092;27;20123;-20
2023/09/30 00:22:55;;;;;;;18.10;3.63;;;11.00;99.90;;;;;;5155972;27;20396;-20
2023/09/30 00:25:21;;;;;;;14.13;3.53;;;11.10;99.90;;;;;;5156869;27;20456;-20
2023/09/30 00:27:48;;;;;;;13.77;4.75;;;11.10;99.90;;;;;;5154739;27;20361;-20
2023/09/30 00:30:13;;;;;;;9.00;4.07;;;10.90;99.90;;;;;;5153802;27;20058;-21
2023/09/30 00:32:39;;;;;;;13.95;4.15;;;10.80;99.90;;;;;;5155903;27;20046;-20
2023/09/30 00:35:11;;;;;;;13.43;4.30;;;10.90;99.90;;;;;;5154856;27;20131;-20
2023/09/30 00:37:39;;;;;;;18.10;4.60;;;11.00;99.90;;;;;;5156741;27;20035;-20
2023/09/30 00:40:06;;;;;;;14.60;3.78;;;10.90;99.90;;;;;;5156053;27;20047;-20
2023/09/30 00:42:32;;;;;;;13.50;3.70;;;10.80;99.90;;;;;;5155989;27;20497;-20
2023/09/30 00:44:58;;;;;;;16.77;4.00;;;11.10;99.90;;;;;;5156226;27;20043;-21
2023/09/30 00:47:24;;;;;;;13.48;3.92;;;10.90;99.90;;;;;;5155600;27;20091;-21
2023/09/30 00:49:50;;;;;;;12.13;3.40;;;10.90;99.90;;;;;;5154104;27;20043;-21
2023/09/30 00:52:18;;;;;;;16.70;4.25;;;10.90;99.90;;;;;;5154328;27;20078;-21
2023/09/30 00:54:44;;;;;;;15.55;5.30;;;10.90;99.90;;;;;;5155484;27;20077;-21
2023/09/30 00:57:11;;;;;;;15.43;3.80;;;10.80;99.90;;;;;;5154538;27;20486;-21
2023/09/30 00:59:37;;;;;;;12.50;3.65;;;10.90;99.90;;;;;;5156082;27;20051;-20
2023/09/30 01:02:05;;;;;;;8.98;3.15;;;10.90;99.90;;;;;;5155520;27;20369;-20
2023/09/30 01:04:31;;;;;;;16.77;4.05;;;11.00;99.90;;;;;;5155429;27;20066;-20
2023/09/30 01:06:57;;;;;;;15.43;4.68;;;11.00;99.90;;;;;;5155322;27;20473;-20
2023/09/30 01:09:24;;;;;;;15.68;3.50;;;11.10;99.90;;;;;;5155323;27;20039;-20
2023/09/30 01:11:50;;;;;;;15.80;4.90;;;11.20;99.90;;;;;;5154409;27;20049;-20
2023/09/30 01:14:29;;;;;;;12.77;3.78;;;11.30;99.90;;;;;;5154398;27;20042;-21
2023/09/30 01:16:55;;;;;;;14.32;4.55;;;11.30;99.90;;;;;;5137036;27;20078;-20
2023/09/30 01:19:24;;;;;;;14.73;3.90;;;11.30;99.90;;;;;;5154404;27;20163;-20
2023/09/30 01:21:56;;;;;;;15.32;3.95;;;11.40;99.90;;;;;;5155368;27;20126;-20
2023/09/30 01:24:22;;;;;;;9.93;3.78;;;11.50;99.90;;;;;;5155301;27;20492;-21
2023/09/30 01:26:48;;;;;;;15.68;3.45;;;11.50;99.90;;;;;;5155201;27;20096;-20
2023/09/30 01:29:14;;;;;;;16.27;4.03;;;11.60;99.90;;;;;;5155257;27;20050;-20
2023/09/30 01:31:40;;;;;;;12.93;2.92;;;11.60;99.90;;;;;;5154076;27;20050;-20
2023/09/30 01:34:06;;;;;;;11.55;3.58;;;11.60;99.90;;;;;;5155107;27;20043;-20
2023/09/30 01:36:32;;;;;;;15.98;3.58;;;11.40;99.90;;;;;;5155677;27;20078;-20
2023/09/30 01:38:58;;;;;;;11.35;4.40;;;11.50;99.90;;;;;;5154497;27;20050;-20
2023/09/30 01:41:24;;;;;;;15.00;3.85;;;11.40;99.90;;;;;;5157820;27;20039;-20
2023/09/30 01:43:49;;;;;;;11.73;3.50;;;11.40;99.90;;;;;;5159163;27;20128;-20
2023/09/30 01:46:15;;;;;;;14.35;4.20;;;11.40;99.90;;;;;;5158668;27;20086;-20
2023/09/30 01:48:41;;;;;;;13.10;3.92;;;11.30;99.90;;;;;;5159683;27;20043;-21
2023/09/30 01:51:07;;;;;;;11.45;3.53;;;11.30;99.90;;;;;;5159372;27;20548;-20
2023/09/30 01:53:33;;;;;;;13.02;3.33;;;11.20;99.90;;;;;;5158968;27;20433;-21
2023/09/30 01:55:59;;;;;;;18.10;4.03;;;11.10;99.90;;;;;;5159797;27;20043;-21
2023/09/30 01:58:25;;;;;;;16.20;4.13;;;10.90;99.90;;;;;;5158905;27;20091;-20
2023/09/30 02:00:52;;;;;;;16.63;3.97;;;10.80;99.90;;;;;;5159407;27;20043;-20
2023/09/30 02:03:18;;;;;;;9.93;3.80;;;10.80;99.90;;;;;;5158848;27;20071;-21
2023/09/30 02:05:44;;;;;;;13.05;4.07;;;10.70;99.90;;;;;;5158789;27;20107;-20
2023/09/30 02:08:09;;;;;;;13.30;4.18;;;10.80;99.90;;;;;;5158321;27;20051;-20
2023/09/30 02:10:35;;;;;;;18.90;4.38;;;10.80;99.90;;;;;;5158631;27;20440;-20
2023/09/30 02:13:05;;;;;;;14.05;5.68;;;10.70;99.90;;;;;;5158611;27;20146;-20
2023/09/30 02:15:31;;;;;;;18.83;4.07;;;10.80;99.90;;;;;;5157607;27;20050;-20
2023/09/30 02:17:57;;;;;;;13.88;4.07;;;10.90;99.90;;;;;;5158564;27;20183;-20
2023/09/30 02:20:25;;;;;;;13.48;3.67;;;11.10;99.90;;;;;;5158486;27;20122;-21
2023/09/30 02:22:52;;;;;;;14.60;4.07;;;11.10;99.90;;;;;;5158428;27;20042;-20
2023/09/30 02:25:18;;;;;;;9.38;3.72;;;11.10;99.90;;;;;;5159687;27;20250;-20
2023/09/30 02:27:45;;;;;;;12.18;4.70;;;11.10;99.90;;;;;;5158326;27;20043;-20
2023/09/30 02:30:13;;;;;;;12.75;4.25;;;11.10;99.90;;;;;;5158345;27;20046;-21
2023/09/30 02:32:40;;;;;;;13.65;4.30;;;11.10;99.90;;;;;;5158834;27;20136;-20
2023/09/30 02:35:06;;;;;;;14.02;4.80;;;11.10;99.90;;;;;;5140339;27;20047;-20
2023/09/30 02:37:36;;;;;;;11.77;3.78;;;11.20;99.90;;;;;;5158674;27;20030;-20
2023/09/30 02:40:09;;;;;;;12.20;3.30;;;11.10;99.90;;;;;;5158235;27;20046;-20
2023/09/30 02:42:39;;;;;;;10.15;4.03;;;11.10;99.90;;;;;;5158417;27;20100;-20
2023/09/30 02:45:06;;;;;;;13.38;4.10;;;11.10;99.90;;;;;;5158622;27;20103;-21
2023/09/30 02:47:34;;;;;;;10.15;3.90;;;11.20;99.90;;;;;;5158171;27;20047;-20
2023/09/30 02:50:00;;;;;;;10.30;3.67;;;11.20;99.90;;;;;;5157910;27;20051;-20
2023/09/30 02:52:27;;;;;;;10.90;3.47;;;11.30;99.90;;;;;;5156788;27;20090;-21
2023/09/30 02:54:53;;;;;;;15.43;4.10;;;11.20;99.90;;;;;;5157148;27;20039;-20
2023/09/30 02:57:19;;;;;;;8.88;3.03;;;11.40;99.90;;;;;;5157623;27;20122;-20
2023/09/30 02:59:45;;;;;;;14.35;3.00;;;11.40;99.90;;;;;;5156538;27;20082;-21
2023/09/30 03:02:11;;;;;;;11.80;3.00;;;11.40;99.90;;;;;;5157219;27;20097;-21
2023/09/30 03:04:37;;;;;;;7.70;3.15;;;11.50;99.90;;;;;;5157918;27;20437;-21
2023/09/30 03:07:03;;;;;;;10.05;2.95;;;11.40;99.90;;;;;;5158044;27;20380;-20
2023/09/30 03:09:28;;;;;;;14.52;3.00;;;11.40;99.90;;;;;;5157510;27;20043;-21
2023/09/30 03:11:59;;;;;;;14.38;3.20;;;11.40;99.90;;;;;;5158083;27;20061;-21
2023/09/30 03:14:25;;;;;;;10.27;3.03;;;11.40;99.90;;;;;;5157515;27;20043;-20
2023/09/30 03:16:51;;;;;;;11.20;3.03;;;11.40;99.90;;;;;;5157449;27;20156;-20
2023/09/30 03:19:17;;;;;;;12.18;3.78;;;11.40;99.90;;;;;;5157356;27;20476;-21
2023/09/30 03:21:43;;;;;;;10.07;3.17;;;11.40;99.90;;;;;;5139068;27;20050;-21
2023/09/30 03:24:09;;;;;;;7.90;2.88;;;11.40;99.90;;;;;;5157235;27;20051;-20
2023/09/30 03:26:35;;;;;;;17.02;3.03;;;11.30;99.90;;;;;;5156160;27;20049;-20
2023/09/30 03:29:05;;;;;;;7.78;2.55;;;11.40;99.90;;;;;;5157400;27;20394;-20
2023/09/30 03:31:31;;;;;;;19.55;3.45;;;11.30;99.90;;;;;;5157109;27;20576;-21
2023/09/30 03:33:57;;;;;;;14.35;3.13;;;11.40;99.90;;;;;;5156456;27;20121;-22
2023/09/30 03:36:26;;;;;;;11.15;3.72;;;11.30;99.90;;;;;;5155773;27;20049;-21
2023/09/30 03:38:54;;;;;;;15.68;3.75;;;11.20;99.90;;;;;;5156934;27;20041;-21
2023/09/30 03:41:20;;;;;;;12.68;2.88;;;11.20;99.90;;;;;;5156166;27;20039;-21
2023/09/30 03:43:47;;;;;;;10.77;3.05;;;11.20;99.90;;;;;;5156664;27;20046;-20
2023/09/30 03:46:13;;;;;;;16.63;3.75;;;11.10;99.90;;;;;;5156492;27;20484;-21
2023/09/30 03:48:39;;;;;;;15.30;3.75;;;11.10;99.90;;;;;;5156679;27;20207;-21
2023/09/30 03:51:14;;;;;;;9.95;2.80;;;11.10;99.90;;;;;;5155536;27;20122;-20
2023/09/30 03:53:44;;;;;;;8.15;2.85;;;11.00;99.90;;;;;;5156678;27;20103;-20
2023/09/30 03:56:13;;;;;;;9.90;3.97;;;10.90;99.90;;;;;;5156661;27;20051;-21
2023/09/30 03:58:41;;;;;;;20.17;3.85;;;10.80;99.90;;;;;;5155609;27;20053;-21
2023/09/30 04:01:07;;;;;;;15.15;3.80;;;10.90;99.90;;;;;;5157323;27;20050;-21
2023/09/30 04:03:34;;;;;;;10.65;2.90;;;10.80;99.90;;;;;;5155054;27;20475;-20
2023/09/30 04:06:02;;;;;;;10.25;3.30;;;10.90;99.90;;;;;;5156444;27;20050;-20
2023/09/30 04:08:28;;;;;;;25.33;4.70;;;10.90;99.90;;;;;;5156296;27;20400;-20
2023/09/30 04:10:54;;;;;;;7.95;3.97;;;10.80;99.90;;;;;;5156954;27;20086;-20
2023/09/30 04:13:21;;;;;;;12.35;3.63;;;10.90;99.90;;;;;;5156268;27;20093;-21
2023/09/30 04:15:47;;;;;;;14.98;3.58;;;10.70;99.90;;;;;;5156267;27;20053;-20
2023/09/30 04:18:13;;;;;;;15.15;3.35;;;10.80;99.90;;;;;;5156000;27;20043;-20
2023/09/30 04:20:39;;;;;;;11.50;3.05;;;10.90;99.90;;;;;;5155191;27;20401;-20
2023/09/30 04:23:06;;;;;;;13.13;3.58;;;10.90;99.90;;;;;;5155897;27;20050;-20
2023/09/30 04:25:32;;;;;;;12.18;3.03;;;11.00;99.90;;;;;;5156705;27;20499;-20
2023/09/30 04:27:58;;;;;;;18.30;4.20;;;10.90;99.90;;;;;;5154393;27;20042;-21
2023/09/30 04:30:24;;;;;;;12.90;3.88;;;10.90;99.90;;;;;;5137375;27;20057;-20
2023/09/30 04:32:50;;;;;;;17.40;4.28;;;11.10;99.90;;;;;;5155877;27;20046;-21
2023/09/30 04:35:15;;;;;;;9.27;3.65;;;11.00;99.90;;;;;;5155861;27;20133;-21
2023/09/30 04:37:41;;;;;;;18.95;3.92;;;11.10;99.90;;;;;;5155836;27;20038;-20
2023/09/30 04:40:44;;;;;;;9.30;3.17;;;11.10;99.90;;;;;;5154578;27;20038;-20
2023/09/30 04:43:00;;;;;;;;;;;11.00;99.90;;;;;;5154470;27;20406;-20
2023/09/30 04:45:27;;;;;;;24.83;4.63;;;11.20;99.90;;;;;;5154736;27;19926;-20
2023/09/30 04:47:53;;;;;;;14.60;4.43;;;11.10;99.90;;;;;;5155629;27;20039;-20
2023/09/30 04:50:21;;;;;;;18.00;3.90;;;11.10;99.90;;;;;;5155650;27;20057;-20
2023/09/30 04:52:48;;;;;;;12.07;4.43;;;11.10;99.90;;;;;;5155670;27;20107;-21
2023/09/30 04:55:16;;;;;;;15.70;5.07;;;11.10;99.90;;;;;;5155490;27;20042;-21
2023/09/30 04:57:46;;;;;;;11.93;5.18;;;11.20;99.90;;;;;;5155840;27;20102;-20
2023/09/30 05:00:21;;;;;;;12.65;4.72;;;11.10;99.90;;;;;;5155810;27;20053;-20
2023/09/30 05:02:47;;;;;;;15.80;4.25;;;11.20;99.90;;;;;;5155843;27;20126;-21
2023/09/30 05:05:14;;;;;;;12.70;4.78;;;11.10;99.90;;;;;;5155492;27;20087;-20
2023/09/30 05:07:41;;;;;;;12.90;3.90;;;11.00;99.90;;;;;;5155074;27;20552;-21
2023/09/30 05:10:11;;;;;;;10.02;4.30;;;11.10;99.90;;;;;;5156015;27;20050;-20
2023/09/30 05:12:37;;;;;;;16.48;4.65;;;11.00;99.90;;;;;;5156075;27;20050;-20
2023/09/30 05:15:06;;;;;;;17.25;4.22;;;11.00;99.90;;;;;;5138697;27;20111;-21
2023/09/30 05:17:32;;;;;;;12.35;4.65;;;11.00;99.90;;;;;;5162261;27;20122;-20
2023/09/30 05:19:58;;;;;;;12.02;4.57;;;10.90;99.90;;;;;;5161063;27;20034;-21
2023/09/30 05:22:24;;;;;;;13.13;4.75;;;10.90;99.90;;;;;;5161307;27;20055;-20
2023/09/30 05:24:54;;;;;;;13.10;4.50;;;10.90;99.90;;;;;;5160743;27;20125;-20
2023/09/30 05:27:20;;;;;;;11.85;5.03;;;10.80;99.90;;;;;;5162919;27;20057;-21
2023/09/30 05:29:45;;;;;;;15.48;5.78;;;10.80;99.90;;;;;;5161967;27;20127;-20
2023/09/30 05:32:12;;;;;;;16.80;5.20;;;10.90;99.90;;;;;;5162424;27;20220;-20
2023/09/30 05:34:39;;;;;;;15.30;5.88;;;10.80;99.90;;;;;;5162192;27;20054;-20
2023/09/30 05:37:05;;;;;;;17.10;5.00;;;10.80;99.90;;;;;;5161137;27;20487;-20
2023/09/30 05:39:31;;;;;;;16.55;6.15;;;10.90;99.90;;;;;;5162594;27;20450;-20
2023/09/30 05:42:00;;;;;;;15.90;5.10;;;10.80;99.90;;;;;;5162301;27;20038;-20
2023/09/30 05:44:27;;;;;;;14.52;5.13;;;10.80;99.90;;;;;;5160883;27;20042;-20
2023/09/30 05:46:53;;;;;;;17.25;6.25;;;10.80;99.90;;;;;;5162468;27;20122;-20
2023/09/30 05:49:20;;;;;;;17.65;6.32;;;10.80;99.90;;;;;;5161950;27;20105;-20
2023/09/30 05:51:48;;;;;;;17.27;6.13;;;10.90;99.90;;;;;;5160967;27;20043;-20
2023/09/30 05:54:14;;;;;;;15.90;5.68;;;10.90;99.90;;;;;;5161801;27;20081;-21
2023/09/30 05:56:43;;;;;;;12.20;5.53;;;10.90;99.90;;;;;;5161318;27;20082;-20
2023/09/30 05:59:17;;;;;;;16.77;6.13;;;11.00;99.90;;;;;;5161813;27;20097;-20
2023/09/30 06:01:43;;;;;;;21.20;5.80;;;10.90;99.90;;;;;;5161846;27;20433;-20
2023/09/30 06:04:09;;;;;;;17.83;6.20;;;11.00;99.90;;;;;;5161458;27;20038;-20
2023/09/30 06:06:34;;;;;;;18.70;7.13;;;10.90;99.90;;;;;;5161645;27;20050;-21
2023/09/30 06:09:00;;;;;;;14.35;5.95;;;11.00;99.90;;;;;;5160575;27;20039;-20
2023/09/30 06:11:28;;;;;;;19.70;7.57;;;11.00;99.90;;;;;;5162018;27;20047;-20
2023/09/30 06:13:54;;;;;;;18.80;7.30;;;11.00;99.90;;;;;;5160688;27;20047;-20
2023/09/30 06:16:20;;;;;;;18.17;7.05;;;11.00;99.90;;;;;;5160733;27;20384;-21
2023/09/30 06:18:46;;;;;;;21.45;7.25;;;11.10;99.90;;;;;;5161673;27;20043;-21
2023/09/30 06:21:14;;;;;;;19.85;7.70;;;10.90;99.90;;;;;;5161627;27;20058;-20
2023/09/30 06:23:40;;;;;;;20.67;7.30;;;10.90;99.90;;;;;;5161449;27;20141;-20
2023/09/30 06:26:06;;;;;;;16.77;7.30;;;10.90;99.90;;;;;;5161173;27;20058;-20
2023/09/30 06:28:33;;;;;;;18.95;8.38;;;10.90;99.90;;;;;;5158256;27;20043;-20
2023/09/30 06:30:59;;;;;;;21.20;7.40;;;11.00;99.90;;;;;;5157135;27;20046;-20
2023/09/30 06:33:29;;;;;;;18.88;7.80;;;10.90;99.90;;;;;;5159355;27;20110;-20
2023/09/30 06:35:55;;;;;;;19.38;8.00;;;11.00;99.90;;;;;;5157026;27;20123;-20
2023/09/30 06:38:21;;;;;;;15.70;7.25;;;10.90;99.90;;;;;;5158153;27;20480;-20
2023/09/30 06:40:47;;;;;;;16.55;8.60;;;11.10;99.90;;;;;;5139856;27;20057;-20
2023/09/30 06:43:16;;;;;;;19.25;7.82;;;11.10;99.90;;;;;;5157942;27;20163;-20
2023/09/30 06:45:46;;;;;;;20.85;7.68;;;11.20;99.90;;;;;;5158835;27;20107;-21
2023/09/30 06:48:13;;;;;;;15.38;8.32;;;11.20;99.90;;;;;;5157864;27;20041;-21
2023/09/30 06:50:48;;;;;;;22.98;8.55;;;11.40;99.90;;;;;;5158161;27;20134;-21
2023/09/30 06:53:21;;;;;;;21.98;8.38;;;11.30;99.90;;;;;;5157826;27;20064;-21
2023/09/30 06:55:47;;;;;;;20.25;7.90;;;11.50;99.90;;;;;;5157842;27;20060;-20
2023/09/30 06:58:13;;;;;;;20.30;8.20;;;11.60;99.90;;;;;;5157774;27;20085;-20
2023/09/30 07:00:42;;;;;;;20.95;8.32;;;11.70;99.90;;;;;;5157796;27;20047;-20
2023/09/30 07:03:09;;;;;;;18.13;7.93;;;12.00;99.90;;;;;;5158535;27;20046;-20
2023/09/30 07:05:36;;;;;;;19.92;8.90;;;12.00;99.90;;;;;;5158449;27;20054;-21
2023/09/30 07:08:02;;;;;;;14.95;7.22;;;12.10;99.90;;;;;;5158359;27;20365;-21
2023/09/30 07:10:31;;;;;;;23.75;8.77;;;12.20;99.90;;;;;;5157267;27;20050;-21
2023/09/30 07:12:57;;;;;;;19.98;7.85;;;12.40;99.90;;;;;;5157495;27;20054;-21
2023/09/30 07:15:23;;;;;;;16.92;7.53;;;12.50;99.90;;;;;;5156250;27;20569;-21
2023/09/30 07:17:49;;;;;;;14.68;7.10;;;12.60;99.90;;;;;;5157948;27;20047;-21
2023/09/30 07:20:15;;;;;;;16.80;7.72;;;12.60;99.90;;;;;;5157932;27;20399;-21
2023/09/30 07:22:41;;;;;;;15.05;6.05;;;12.60;99.90;;;;;;5157308;27;20539;-21
2023/09/30 07:25:08;;;;;;;12.95;6.10;;;12.70;99.90;;;;;;5156175;27;20503;-21
2023/09/30 07:27:34;;;;;;;14.05;6.63;;;12.80;99.90;;;;;;5157122;27;20043;-21
2023/09/30 07:30:00;;;;;;;16.90;7.07;;;12.80;99.90;;;;;;5157128;27;20047;-21
2023/09/30 07:32:26;;;;;;;11.43;6.00;;;12.80;99.90;;;;;;5155668;27;20130;-21
2023/09/30 07:34:52;;;;;;;10.05;5.30;;;12.80;99.90;;;;;;5155921;27;20047;-21
2023/09/30 07:37:19;;;;;;;13.65;6.20;;;12.90;99.90;;;;;;5157606;27;20469;-21
2023/09/30 07:39:45;;;;;;;16.17;6.45;;;12.90;99.90;;;;;;5156118;27;20400;-21
2023/09/30 07:42:11;;;;;;;14.77;6.25;;;13.00;99.90;;;;;;5156902;27;20042;-21
2023/09/30 07:44:38;;;;;;;18.58;6.43;;;13.00;99.90;;;;;;5156883;27;20038;-21
2023/09/30 07:47:06;;;;;;;16.15;5.78;;;13.10;99.90;;;;;;5156720;27;20045;-21
2023/09/30 07:49:32;;;;;;;12.35;6.18;;;13.20;99.90;;;;;;5155503;27;20046;-20
2023/09/30 07:51:58;;;;;;;12.00;6.55;;;13.30;99.90;;;;;;5156729;27;20051;-21
2023/09/30 07:54:24;;;;;;;15.32;6.20;;;13.40;99.90;;;;;;5155090;27;20054;-21
2023/09/30 07:56:50;;;;;;;14.50;5.97;;;13.50;99.90;;;;;;5156261;27;20045;-21
2023/09/30 07:59:15;;;;;;;11.73;5.07;;;13.60;99.90;;;;;;5156600;27;20085;-21
2023/09/30 08:01:41;;;;;;;14.73;5.55;;;13.70;99.90;;;;;;5157402;27;20118;-21
2023/09/30 08:04:07;;;;;;;11.43;4.70;;;13.80;99.90;;;;;;5155261;27;20499;-21
2023/09/30 08:06:33;;;;;;;20.50;5.25;;;13.90;99.90;;;;;;5156348;27;20046;-21
2023/09/30 08:08:59;;;;;;;13.38;5.63;;;14.10;99.90;;;;;;5156353;27;20115;-21
2023/09/30 08:11:30;;;;;;;16.20;6.00;;;14.20;99.90;;;;;;5155155;27;20047;-21
2023/09/30 08:13:58;;;;;;;13.63;4.97;;;14.20;99.90;;;;;;5157192;27;20047;-21
2023/09/30 08:16:24;;;;;;;13.80;4.88;;;14.40;99.90;;;;;;5156534;27;20433;-21
2023/09/30 08:18:50;;;;;;;12.77;4.53;;;14.50;99.90;;;;;;5156179;27;20046;-21
2023/09/30 08:21:16;;;;;;;9.60;3.45;;;14.70;99.90;;;;;;5154889;27;20034;-21
2023/09/30 08:23:42;;;;;;;12.35;4.40;;;14.80;99.90;;;;;;5155934;27;20051;-21
2023/09/30 08:26:08;;;;;;;46.17;14.40;;;14.90;99.90;;;;;;5156766;27;20088;-21
2023/09/30 08:28:35;;;;;;;17.52;5.40;;;15.10;99.90;;;;;;5155986;27;20457;-21
2023/09/30 08:31:05;;;;;;;21.92;6.85;;;15.20;99.90;;;;;;5155934;27;20174;-21
2023/09/30 08:33:31;;;;;;;15.73;4.57;;;15.30;99.90;;;;;;5156537;27;20076;-21
2023/09/30 08:36:07;;;;;;;18.50;5.32;;;15.30;99.90;;;;;;5156071;27;20047;-21
2023/09/30 08:38:37;;;;;;;11.35;3.42;;;15.40;99.90;;;;;;5155852;27;20134;-21
2023/09/30 08:41:03;;;;;;;9.63;4.40;;;15.50;99.90;;;;;;5155784;27;20046;-21
2023/09/30 08:43:31;;;;;;;12.65;2.65;;;15.70;99.90;;;;;;5155893;27;20132;-21
2023/09/30 08:45:59;;;;;;;18.15;4.45;;;15.80;99.90;;;;;;5156540;27;20399;-21
2023/09/30 08:48:27;;;;;;;9.77;3.33;;;15.80;99.90;;;;;;5155317;27;20495;-21
2023/09/30 08:50:57;;;;;;;15.32;3.83;;;16.00;99.90;;;;;;5154813;27;20095;-21
2023/09/30 08:53:24;;;;;;;13.70;4.45;;;16.00;99.90;;;;;;5156443;27;20039;-21
2023/09/30 08:55:56;;;;;;;10.38;2.83;;;16.10;99.90;;;;;;5155380;27;20095;-21
2023/09/30 08:58:27;;;;;;;12.27;3.30;;;16.30;99.90;;;;;;5155226;27;20070;-21
2023/09/30 09:00:53;;;;;;;13.40;3.53;;;16.30;99.90;;;;;;5155547;27;20035;-22
2023/09/30 09:03:20;;;;;;;11.35;2.70;;;16.50;99.90;;;;;;5154386;27;20048;-21
2023/09/30 09:06:00;;;;;;;10.88;2.97;;;16.60;99.90;;;;;;5155795;27;20062;-22
2023/09/30 09:08:26;;;;;;;11.00;2.75;;;17.10;99.90;;;;;;5154901;27;20392;-21
2023/09/30 09:10:58;;;;;;;13.13;3.33;;;17.50;99.90;;;;;;5140870;27;20051;-21
2023/09/30 09:13:25;;;;;;;33.00;4.05;;;17.90;99.90;;;;;;5149185;27;20047;-22
2023/09/30 09:16:07;;;;;;;11.82;2.83;;;18.10;99.90;;;;;;5134646;27;20051;-22
2023/09/30 09:18:33;;;;;;;9.90;2.75;;;18.40;99.90;;;;;;5133452;28;20043;-22
2023/09/30 09:21:14;;;;;;;8.52;2.50;;;18.60;99.90;;;;;;5134620;27;20095;-22
2023/09/30 09:23:51;;;;;;;12.05;3.15;;;18.60;99.90;;;;;;5138872;27;20047;-21
2023/09/30 09:26:31;;;;;;;9.95;3.65;;;18.90;99.90;;;;;;5135212;27;20043;-22
2023/09/30 09:28:58;;;;;;;10.75;2.70;;;19.10;99.90;;;;;;5150283;27;20090;-22
2023/09/30 09:31:27;;;;;;;7.70;2.58;;;19.20;99.90;;;;;;5155188;27;20042;-22
2023/09/30 09:33:53;;;;;;;11.20;2.83;;;19.30;99.90;;;;;;5154517;27;20464;-22
2023/09/30 09:36:19;;;;;;;10.63;2.80;;;19.30;99.90;;;;;;5154803;27;20125;-22
2023/09/30 09:38:54;;;;;;;7.95;2.42;;;19.50;99.90;;;;;;5136713;27;20126;-21
2023/09/30 09:41:20;;;;;;;10.63;3.22;;;19.60;99.90;;;;;;5155071;27;20039;-22
2023/09/30 09:43:50;;;;;;;11.38;2.33;;;19.60;99.90;;;;;;5155052;27;20407;-22
2023/09/30 09:46:17;;;;;;;8.40;2.40;;;19.10;99.90;;;;;;5155370;27;20053;-22
2023/09/30 09:48:47;;;;;;;7.53;2.20;;;18.90;99.90;;;;;;5155060;27;20062;-22
2023/09/30 09:51:13;;;;;;;5.80;1.70;;;18.50;99.90;;;;;;5155880;27;20039;-22
2023/09/30 09:53:41;;;;;;;8.75;1.92;;;18.10;99.90;;;;;;5155180;27;20086;-22
2023/09/30 09:56:12;;;;;;;7.82;2.28;;;17.50;99.90;;;;;;5153729;27;20099;-22
2023/09/30 09:58:40;;;;;;;6.88;1.92;;;17.10;99.90;;;;;;5155566;27;20046;-22
2023/09/30 10:01:07;;;;;;;12.20;2.25;;;17.10;99.90;;;;;;5155674;27;20106;-22
2023/09/30 10:03:33;;;;;;;11.68;1.90;;;17.60;99.90;;;;;;5159677;27;20042;-23
2023/09/30 10:06:00;;;;;;;12.15;1.83;;;17.90;99.90;;;;;;5157830;27;20050;-23
2023/09/30 10:08:45;;;;;;;9.43;2.30;;;17.80;99.90;;;;;;5158702;27;20047;-22
2023/09/30 10:11:18;;;;;;;10.95;1.65;;;17.60;99.90;;;;;;5158767;27;20085;-23
2023/09/30 10:13:55;;;;;;;7.38;1.60;;;17.40;99.90;;;;;;5159580;27;20097;-22
2023/09/30 10:16:36;;;;;;;11.35;2.47;;;17.20;99.90;;;;;;5158648;27;20093;-21
2023/09/30 10:19:11;;;;;;;9.35;2.10;;;17.20;99.90;;;;;;5158570;27;20065;-22
2023/09/30 10:21:38;;;;;;;9.27;1.70;;;17.30;99.90;;;;;;5158057;27;20385;-22
2023/09/30 10:24:39;;;;;;;10.02;1.67;;;17.80;99.90;;;;;;5158486;27;20050;-22
2023/09/30 10:27:28;;;;;;;10.35;2.13;;;18.30;99.90;;;;;;5074055;28;20048;-22
2023/09/30 10:30:09;;;;;;;4.47;1.70;;;18.90;99.90;;;;;;5154461;27;20413;-22
2023/09/30 10:33:01;;;;;;;10.30;2.30;;;19.60;99.90;;;;;;5158374;27;20049;-22
2023/09/30 10:35:27;;;;;;;8.55;2.40;;;19.90;1.00;;;;;;5153945;27;20055;-23
2023/09/30 10:38:22;;;;;;;9.77;2.53;;;19.90;99.90;;;;;;5140004;27;20183;-22
2023/09/30 10:40:50;;;;;;;13.90;2.72;;;19.80;1.00;;;;;;5158793;27;20383;-22
2023/09/30 10:43:35;;;;;;;8.48;2.03;;;19.30;99.90;;;;;;5158907;27;20065;-22
2023/09/30 10:46:02;;;;;;;8.38;2.20;;;18.60;99.90;;;;;;5158044;27;20053;-22
2023/09/30 10:48:28;;;;;;;7.20;1.17;;;18.10;99.90;;;;;;5157927;27;20473;-22
2023/09/30 10:51:00;;;;;;;6.70;1.30;;;17.70;99.90;;;;;;5157956;27;20046;-22
2023/09/30 10:53:27;;;;;;;11.53;1.60;;;17.40;99.90;;;;;;5157990;27;20086;-22
2023/09/30 10:55:57;;;;;;;7.35;0.93;;;17.20;99.90;;;;;;5158374;27;20141;-23
2023/09/30 10:58:45;;;;;;;10.65;2.30;;;17.10;99.90;;;;;;5139727;27;20059;-22
2023/09/30 11:01:13;;;;;;;8.18;1.27;;;17.00;99.90;;;;;;5157765;27;20176;-22
2023/09/30 11:03:40;;;;;;;6.05;1.10;;;16.90;99.90;;;;;;5157754;27;20484;-22
2023/09/30 11:06:06;;;;;;;7.03;1.10;;;16.90;99.90;;;;;;5157682;27;20051;-22
2023/09/30 11:08:33;;;;;;;5.00;1.10;;;16.80;99.90;;;;;;5157520;27;20041;-22
2023/09/30 11:11:00;;;;;;;7.90;2.30;;;16.80;99.90;;;;;;5157585;27;20057;-22
2023/09/30 11:13:34;;;;;;;5.97;1.30;;;16.80;99.90;;;;;;5155403;27;20088;-22
2023/09/30 11:16:10;;;;;;;8.98;1.30;;;16.80;99.90;;;;;;5157833;27;20097;-22
2023/09/30 11:18:38;;;;;;;7.85;1.20;;;16.80;99.90;;;;;;5156898;27;20422;-22
2023/09/30 11:21:08;;;;;;;4.25;1.00;;;16.80;99.90;;;;;;5156841;27;20046;-22
2023/09/30 11:23:35;;;;;;;6.75;1.10;;;16.80;99.90;;;;;;5158141;27;20384;-22
2023/09/30 11:26:01;;;;;;;9.82;1.25;;;16.80;99.90;;;;;;5157330;27;20078;-22
2023/09/30 11:28:37;;;;;;;7.60;1.25;;;16.90;99.90;;;;;;5157169;27;20503;-22
2023/09/30 11:31:03;;;;;;;10.77;1.52;;;17.00;99.90;;;;;;5157208;27;20476;-22
2023/09/30 11:33:30;;;;;;;7.57;1.50;;;17.00;99.90;;;;;;5157418;27;20079;-22
2023/09/30 11:36:05;;;;;;;7.45;2.28;;;17.20;99.90;;;;;;5156127;27;20453;-22
2023/09/30 11:38:32;;;;;;;5.93;2.05;;;17.50;99.90;;;;;;5157647;27;20376;-22
2023/09/30 11:41:06;;;;;;;8.68;1.60;;;17.70;99.90;;;;;;5157189;27;20429;-22
2023/09/30 11:43:35;;;;;;;9.23;2.20;;;18.00;99.90;;;;;;5156931;27;20046;-22
2023/09/30 11:46:06;;;;;;;6.25;1.48;;;18.10;99.90;;;;;;5138645;27;20077;-22
2023/09/30 11:48:32;;;;;;;8.55;1.55;;;18.00;99.90;;;;;;5156779;27;20133;-22
2023/09/30 11:51:02;;;;;;;3.88;1.25;;;17.80;99.90;;;;;;5157589;27;20453;-22
2023/09/30 11:53:32;;;;;;;8.00;1.77;;;17.80;99.90;;;;;;5156796;27;20055;-22
2023/09/30 11:55:59;;;;;;;5.53;1.23;;;17.90;99.90;;;;;;5155972;27;20050;-22
2023/09/30 11:58:28;;;;;;;6.47;1.85;;;18.10;99.90;;;;;;5156645;27;20043;-22
2023/09/30 12:00:55;;;;;;;8.73;1.50;;;18.70;99.90;;;;;;5155661;27;20424;-22
2023/09/30 12:03:24;;;;;;;9.10;1.60;;;19.20;99.90;;;;;;5156540;27;20077;-22
2023/09/30 12:05:49;;;;;;;16.08;2.47;;;19.70;99.90;;;;;;5156547;27;20171;-23
2023/09/30 12:08:15;;;;;;;8.27;1.67;;;20.40;1.00;;;;;;5157137;27;20121;-22
2023/09/30 12:10:42;;;;;;;10.68;1.77;;;20.70;1.00;;;;;;5155159;27;20050;-22
2023/09/30 12:13:07;;;;;;;5.75;1.48;;;20.60;1.00;;;;;;5171553;27;20476;-23
2023/09/30 12:15:33;;;;;;;4.80;1.52;;;20.10;99.90;;;;;;5156282;27;20174;-23
2023/09/30 12:17:59;;;;;;;8.10;1.80;;;19.80;65.40;;;;;;5121811;27;20046;-23
2023/09/30 12:20:25;;;;;;;8.15;1.33;;;19.40;99.90;;;;;;5120603;27;20039;-23
2023/09/30 12:22:52;;;;;;;11.38;2.13;;;18.80;1.00;;;;;;5156177;27;20038;-22
2023/09/30 12:25:21;;;;;;;7.50;1.15;;;18.40;1.00;;;;;;5155653;27;20062;-23
2023/09/30 12:27:48;;;;;;;4.68;1.30;;;18.00;99.90;;;;;;5138201;27;20049;-23
2023/09/30 12:30:14;;;;;;;7.15;2.15;;;17.80;35.70;;;;;;5155090;27;20435;-23
2023/09/30 12:32:40;;;;;;;6.32;1.70;;;17.70;33.10;;;;;;5155998;27;20078;-23
2023/09/30 12:35:06;;;;;;;6.78;1.40;;;17.60;99.90;;;;;;5155931;27;20053;-23
2023/09/30 12:37:32;;;;;;;3.35;1.45;;;17.60;99.90;;;;;;5155980;27;20039;-23
2023/09/30 12:39:58;;;;;;;8.98;1.92;;;17.50;1.00;;;;;;5155865;27;20050;-23
2023/09/30 12:42:24;;;;;;;8.38;1.48;;;17.60;1.00;;;;;;5137425;27;20082;-23
2023/09/30 12:44:52;;;;;;;3.75;1.35;;;17.70;99.90;;;;;;5155806;27;20431;-23